sensor_id;sensor_type;location;lat;lon;timestamp;pressure;altitude;pressure_sealevel;temperature;humidity
19843;BME280;10082;51.038;6.992;2023-04-02T00:02:25;109855.25;;;-144.33;100.00
19843;BME280;10082;51.038;6.992;2023-04-02T00:05:28;110203.31;;;-144.33;100.00
19843;BME280;10082;51.038;6.992;2023-04-02T00:08:00;110281.78;;;-144.33;100.00
19843;BME280;10082;51.038;6.992;2023-04-02T00:10:31;110466.91;;;-144.33;100.00
19843;BME280;10082;51.038;6.992;2023-04-02T00:13:04;110666.09;;;-144.33;100.00
19843;BME280;10082;51.038;6.992;2023-04-02T00:15:33;110728.50;;;-144.33;100.00
19843;BME280;10082;51.038;6.992;2023-04-02T00:18:01;110984.06;;;-144.33;100.00
19843;BME280;10082;51.038;6.992;2023-04-02T00:20:32;111088.69;;;-144.33;100.00
19843;BME280;10082;51.038;6.992;2023-04-02T00:23:04;111169.19;;;-144.33;100.00
19843;BME280;10082;51.038;6.992;2023-04-02T00:25:36;111092.72;;;-144.33;100.00
19843;BME280;10082;51.038;6.992;2023-04-02T00:28:11;111157.13;;;-144.33;100.00
19843;BME280;10082;51.038;6.992;2023-04-02T00:30:46;110515.19;;;-144.33;100.00
19843;BME280;10082;51.038;6.992;2023-04-02T00:33:17;109531.38;;;-144.33;100.00
19843;BME280;10082;51.038;6.992;2023-04-02T00:35:46;109483.09;;;-144.33;100.00
19843;BME280;10082;51.038;6.992;2023-04-02T00:38:19;109656.09;;;-144.33;100.00
19843;BME280;10082;51.038;6.992;2023-04-02T00:43:37;109935.72;;;-144.33;100.00
19843;BME280;10082;51.038;6.992;2023-04-02T00:46:13;109621.88;;;-144.33;100.00
19843;BME280;10082;51.038;6.992;2023-04-02T00:48:48;109287.97;;;-144.33;100.00
19843;BME280;10082;51.038;6.992;2023-04-02T00:51:22;108742.88;;;-144.33;100.00
19843;BME280;10082;51.038;6.992;2023-04-02T00:53:51;108531.69;;;-144.33;100.00
19843;BME280;10082;51.038;6.992;2023-04-02T00:56:24;108189.78;;;-144.33;100.00
19843;BME280;10082;51.038;6.992;2023-04-02T00:58:56;107821.78;;;-144.33;100.00
19843;BME280;10082;51.038;6.992;2023-04-02T01:01:26;107715.22;;;-144.33;100.00
19843;BME280;10082;51.038;6.992;2023-04-02T01:03:56;107437.75;;;-144.33;100.00
19843;BME280;10082;51.038;6.992;2023-04-02T01:06:28;107182.41;;;-144.33;100.00
19843;BME280;10082;51.038;6.992;2023-04-02T01:09:08;106655.69;;;-144.33;100.00
19843;BME280;10082;51.038;6.992;2023-04-02T01:11:50;106655.69;;;-144.33;100.00
19843;BME280;10082;51.038;6.992;2023-04-02T01:14:36;106424.50;;;-144.33;100.00
19843;BME280;10082;51.038;6.992;2023-04-02T01:17:14;106106.91;;;-144.33;100.00
19843;BME280;10082;51.038;6.992;2023-04-02T01:20:02;106297.88;;;-144.33;100.00
19843;BME280;10082;51.038;6.992;2023-04-02T01:22:43;105968.22;;;-144.33;100.00
19843;BME280;10082;51.038;6.992;2023-04-02T01:25:18;103978.88;;;-144.33;100.00
19843;BME280;10082;51.038;6.992;2023-04-02T01:27:53;103446.56;;;-144.33;100.00
19843;BME280;10082;51.038;6.992;2023-04-02T01:30:27;104213.94;;;-144.33;100.00
19843;BME280;10082;51.038;6.992;2023-04-02T01:32:55;103219.59;;;-144.33;100.00
19843;BME280;10082;51.038;6.992;2023-04-02T01:35:24;100364.41;;;-144.33;100.00
19843;BME280;10082;51.038;6.992;2023-04-02T01:38:01;101900.16;;;-144.33;100.00
19843;BME280;10082;51.038;6.992;2023-04-02T01:40:35;100434.66;;;-144.33;100.00
19843;BME280;10082;51.038;6.992;2023-04-02T01:43:14;99441.22;;;-144.33;100.00
19843;BME280;10082;51.038;6.992;2023-04-02T01:45:47;98668.72;;;-144.33;100.00
19843;BME280;10082;51.038;6.992;2023-04-02T01:48:16;98243.41;;;-144.33;100.00
19843;BME280;10082;51.038;6.992;2023-04-02T01:50:47;98405.91;;;-144.33;100.00
19843;BME280;10082;51.038;6.992;2023-04-02T01:53:17;96454.38;;;-144.33;100.00
19843;BME280;10082;51.038;6.992;2023-04-02T01:55:47;95333.63;;;-144.33;100.00
19843;BME280;10082;51.038;6.992;2023-04-02T01:58:19;94549.88;;;-144.33;100.00
19843;BME280;10082;51.038;6.992;2023-04-02T02:00:54;93379.53;;;-144.33;100.00
19843;BME280;10082;51.038;6.992;2023-04-02T02:03:23;93239.28;;;-144.33;100.00
19843;BME280;10082;51.038;6.992;2023-04-02T02:05:51;92786.50;;;-144.33;100.00
19843;BME280;10082;51.038;6.992;2023-04-02T02:08:32;92946.78;;;-144.33;100.00
19843;BME280;10082;51.038;6.992;2023-04-02T02:11:04;91752.88;;;-144.33;100.00
19843;BME280;10082;51.038;6.992;2023-04-02T02:13:31;92413.88;;;-144.33;100.00
19843;BME280;10082;51.038;6.992;2023-04-02T02:16:03;91400.38;;;-144.33;100.00
19843;BME280;10082;51.038;6.992;2023-04-02T02:18:32;90415.19;;;-144.33;100.00
19843;BME280;10082;51.038;6.992;2023-04-02T02:21:03;89438.22;;;-144.33;100.00
19843;BME280;10082;51.038;6.992;2023-04-02T02:23:37;89308.09;;;-144.33;100.00
19843;BME280;10082;51.038;6.992;2023-04-02T02:26:05;88603.56;;;-144.33;100.00
19843;BME280;10082;51.038;6.992;2023-04-02T02:28:36;87583.03;;;-144.33;100.00
19843;BME280;10082;51.038;6.992;2023-04-02T02:31:12;87048.84;;;-144.33;100.00
19843;BME280;10082;51.038;6.992;2023-04-02T02:33:47;86114.72;;;-144.33;100.00
19843;BME280;10082;51.038;6.992;2023-04-02T02:36:22;86006.72;;;-144.33;100.00
19843;BME280;10082;51.038;6.992;2023-04-02T02:38:54;85700.72;;;-144.33;100.00
19843;BME280;10082;51.038;6.992;2023-04-02T02:41:38;84974.81;;;-144.33;100.00
19843;BME280;10082;51.038;6.992;2023-04-02T02:44:13;84197.09;;;-144.33;100.00
19843;BME280;10082;51.038;6.992;2023-04-02T02:46:48;83377.53;;;-144.33;100.00
19843;BME280;10082;51.038;6.992;2023-04-02T02:49:21;82472.22;;;-144.33;100.00
19843;BME280;10082;51.038;6.992;2023-04-02T02:51:57;81870.78;;;-144.33;100.00
19843;BME280;10082;51.038;6.992;2023-04-02T02:54:39;81323.38;;;-144.33;100.00
19843;BME280;10082;51.038;6.992;2023-04-02T02:57:13;80226.78;;;-144.33;100.00
19843;BME280;10082;51.038;6.992;2023-04-02T02:59:44;78950.81;;;-144.33;100.00
19843;BME280;10082;51.038;6.992;2023-04-02T03:02:14;78262.06;;;-144.33;100.00
19843;BME280;10082;51.038;6.992;2023-04-02T03:04:46;77589.41;;;-144.33;100.00
19843;BME280;10082;51.038;6.992;2023-04-02T03:07:15;76499.84;;;-144.33;100.00
19843;BME280;10082;51.038;6.992;2023-04-02T03:09:50;75622.00;;;-144.33;100.00
19843;BME280;10082;51.038;6.992;2023-04-02T03:12:29;74548.91;;;-144.33;100.00
19843;BME280;10082;51.038;6.992;2023-04-02T03:15:04;73844.97;;;-144.33;100.00
19843;BME280;10082;51.038;6.992;2023-04-02T03:17:41;73057.44;;;-144.33;100.00
19843;BME280;10082;51.038;6.992;2023-04-02T03:20:14;72118.56;;;-144.33;100.00
19843;BME280;10082;51.038;6.992;2023-04-02T03:22:47;71116.16;;;-144.33;100.00
19843;BME280;10082;51.038;6.992;2023-04-02T03:25:29;70016.38;;;-144.33;100.00
19843;BME280;10082;51.038;6.992;2023-04-02T03:28:02;69187.78;;;-144.33;100.00
19843;BME280;10082;51.038;6.992;2023-04-02T03:30:37;68096.50;;;-144.33;100.00
19843;BME280;10082;51.038;6.992;2023-04-02T03:35:58;66308.88;;;-144.33;100.00
19843;BME280;10082;51.038;6.992;2023-04-02T03:38:35;65711.88;;;-144.33;100.00
19843;BME280;10082;51.038;6.992;2023-04-02T03:41:14;65055.25;;;-144.33;100.00
19843;BME280;10082;51.038;6.992;2023-04-02T03:43:46;63998.91;;;-144.33;100.00
19843;BME280;10082;51.038;6.992;2023-04-02T03:46:22;63511.63;;;-144.33;100.00
19843;BME280;10082;51.038;6.992;2023-04-02T03:48:54;62962.75;;;-144.33;100.00
19843;BME280;10082;51.038;6.992;2023-04-02T03:51:29;62553.13;;;-144.33;100.00
19843;BME280;10082;51.038;6.992;2023-04-02T03:54:01;62155.47;;;-144.33;100.00
19843;BME280;10082;51.038;6.992;2023-04-02T03:56:30;61749.91;;;-144.33;100.00
19843;BME280;10082;51.038;6.992;2023-04-02T03:59:11;61197.31;;;-144.33;100.00
19843;BME280;10082;51.038;6.992;2023-04-02T04:01:47;60762.03;;;-144.33;100.00
19843;BME280;10082;51.038;6.992;2023-04-02T04:04:20;60034.69;;;-144.33;100.00
19843;BME280;10082;51.038;6.992;2023-04-02T04:06:51;59865.81;;;-144.33;100.00
19843;BME280;10082;51.038;6.992;2023-04-02T04:09:23;59412.78;;;-144.33;100.00
19843;BME280;10082;51.038;6.992;2023-04-02T04:12:00;59553.84;;;-144.33;100.00
19843;BME280;10082;51.038;6.992;2023-04-02T04:14:35;58733.38;;;-144.33;100.00
19843;BME280;10082;51.038;6.992;2023-04-02T04:17:10;58326.19;;;-144.33;100.00
19843;BME280;10082;51.038;6.992;2023-04-02T04:19:44;57831.63;;;-144.33;100.00
19843;BME280;10082;51.038;6.992;2023-04-02T04:22:21;57486.09;;;-144.33;100.00
19843;BME280;10082;51.038;6.992;2023-04-02T04:24:55;56656.13;;;-144.33;100.00
19843;BME280;10082;51.038;6.992;2023-04-02T04:27:25;55838.22;;;-144.33;100.00
19843;BME280;10082;51.038;6.992;2023-04-02T04:30:03;55397.56;;;-144.33;100.00
19843;BME280;10082;51.038;6.992;2023-04-02T04:32:47;55897.78;;;-144.33;100.00
19843;BME280;10082;51.038;6.992;2023-04-02T04:35:24;55506.75;;;-144.33;100.00
19843;BME280;10082;51.038;6.992;2023-04-02T04:38:01;55619.88;;;-144.33;100.00
19843;BME280;10082;51.038;6.992;2023-04-02T04:40:33;55576.22;;;-144.33;100.00
19843;BME280;10082;51.038;6.992;2023-04-02T04:43:06;54615.66;;;-144.33;100.00
19843;BME280;10082;51.038;6.992;2023-04-02T04:45:42;54123.56;;;-144.33;100.00
19843;BME280;10082;51.038;6.992;2023-04-02T04:48:17;54492.63;;;-144.33;100.00
19843;BME280;10082;51.038;6.992;2023-04-02T04:50:50;53899.38;;;-144.33;100.00
19843;BME280;10082;51.038;6.992;2023-04-02T04:53:29;53250.66;;;-144.33;100.00
19843;BME280;10082;51.038;6.992;2023-04-02T04:55:59;53363.72;;;-144.33;100.00
19843;BME280;10082;51.038;6.992;2023-04-02T04:58:35;52707.16;;;-144.33;100.00
19843;BME280;10082;51.038;6.992;2023-04-02T05:01:11;51626.34;;;-144.33;100.00
19843;BME280;10082;51.038;6.992;2023-04-02T05:03:44;51608.50;;;-144.33;100.00
19843;BME280;10082;51.038;6.992;2023-04-02T05:06:23;50345.63;;;-144.33;100.00
19843;BME280;10082;51.038;6.992;2023-04-02T05:09:03;50220.75;;;-144.33;100.00
19843;BME280;10082;51.038;6.992;2023-04-02T05:11:37;49523.09;;;-144.33;100.00
19843;BME280;10082;51.038;6.992;2023-04-02T05:14:17;49263.47;;;-144.33;100.00
19843;BME280;10082;51.038;6.992;2023-04-02T05:16:50;48859.22;;;-144.33;100.00
19843;BME280;10082;51.038;6.992;2023-04-02T05:19:24;48001.34;;;-144.33;100.00
19843;BME280;10082;51.038;6.992;2023-04-02T05:21:58;47747.78;;;-144.33;100.00
19843;BME280;10082;51.038;6.992;2023-04-02T05:24:39;46898.06;;;-144.33;100.00
19843;BME280;10082;51.038;6.992;2023-04-02T05:27:18;46381.16;;;-144.33;100.00
19843;BME280;10082;51.038;6.992;2023-04-02T05:29:55;46525.72;;;-144.33;100.00
19843;BME280;10082;51.038;6.992;2023-04-02T05:32:29;46381.16;;;-144.33;100.00
19843;BME280;10082;51.038;6.992;2023-04-02T05:34:59;45397.13;;;-144.33;100.00
19843;BME280;10082;51.038;6.992;2023-04-02T05:37:33;44538.00;;;-144.33;100.00
19843;BME280;10082;51.038;6.992;2023-04-02T05:40:12;45114.03;;;-144.33;100.00
19843;BME280;10082;51.038;6.992;2023-04-02T05:42:47;44258.94;;;-144.33;100.00
19843;BME280;10082;51.038;6.992;2023-04-02T05:45:24;43938.31;;;-144.33;100.00
19843;BME280;10082;51.038;6.992;2023-04-02T05:47:57;43811.66;;;-144.33;100.00
19843;BME280;10082;51.038;6.992;2023-04-02T05:50:34;43427.75;;;-144.33;100.00
19843;BME280;10082;51.038;6.992;2023-04-02T05:53:08;44179.75;;;-144.33;100.00
19843;BME280;10082;51.038;6.992;2023-04-02T05:55:55;43562.31;;;-144.33;100.00
19843;BME280;10082;51.038;6.992;2023-04-02T05:58:33;43360.47;;;-144.33;100.00
19843;BME280;10082;51.038;6.992;2023-04-02T06:01:26;42770.88;;;-144.33;100.00
19843;BME280;10082;51.038;6.992;2023-04-02T06:04:04;43827.50;;;-144.33;100.00
19843;BME280;10082;51.038;6.992;2023-04-02T06:06:47;43530.66;;;-144.33;100.00
19843;BME280;10082;51.038;6.992;2023-04-02T06:09:23;43481.19;;;-144.33;100.00
19843;BME280;10082;51.038;6.992;2023-04-02T06:11:59;42486.00;;;-144.33;100.00
19843;BME280;10082;51.038;6.992;2023-04-02T06:14:32;42893.53;;;-144.33;100.00
19843;BME280;10082;51.038;6.992;2023-04-02T06:17:00;42345.53;;;-144.33;100.00
19843;BME280;10082;51.038;6.992;2023-04-02T06:19:31;43760.22;;;-144.33;100.00
19843;BME280;10082;51.038;6.992;2023-04-02T06:22:09;44551.84;;;-144.33;100.00
19843;BME280;10082;51.038;6.992;2023-04-02T06:24:43;44205.50;;;-144.33;100.00
19843;BME280;10082;51.038;6.992;2023-04-02T06:27:15;41180.53;;;-144.33;100.00
19843;BME280;10082;51.038;6.992;2023-04-02T06:29:49;41421.81;;;-144.33;100.00
19843;BME280;10082;51.038;6.992;2023-04-02T06:32:22;43172.50;;;-144.33;100.00
19843;BME280;10082;51.038;6.992;2023-04-02T06:34:52;42428.63;;;-144.33;100.00
19843;BME280;10082;51.038;6.992;2023-04-02T06:37:31;42669.97;;;-144.33;100.00
19843;BME280;10082;51.038;6.992;2023-04-02T06:40:36;42276.28;;;-144.33;100.00
19843;BME280;10082;51.038;6.992;2023-04-02T06:43:30;43241.75;;;-144.33;100.00
19843;BME280;10082;51.038;6.992;2023-04-02T06:46:25;41983.53;;;-144.33;100.00
19843;BME280;10082;51.038;6.992;2023-04-02T06:49:08;42199.16;;;-144.33;100.00
19843;BME280;10082;51.038;6.992;2023-04-02T06:51:48;42824.28;;;-144.33;100.00
19843;BME280;10082;51.038;6.992;2023-04-02T06:54:17;43045.88;;;-144.33;100.00
19843;BME280;10082;51.038;6.992;2023-04-02T06:56:51;43024.13;;;-144.33;100.00
19843;BME280;10082;51.038;6.992;2023-04-02T06:59:35;42569.06;;;-144.33;100.00
19843;BME280;10082;51.038;6.992;2023-04-02T07:02:21;43057.75;;;-144.33;100.00
19843;BME280;10082;51.038;6.992;2023-04-02T07:04:53;42802.53;;;-144.33;100.00
19843;BME280;10082;51.038;6.992;2023-04-02T07:07:22;42361.34;;;-144.33;100.00
19843;BME280;10082;51.038;6.992;2023-04-02T07:09:50;41621.56;;;-144.33;100.00
19843;BME280;10082;51.038;6.992;2023-04-02T07:12:21;41441.59;;;-144.33;100.00
19843;BME280;10082;51.038;6.992;2023-04-02T07:14:52;41200.31;;;-144.33;100.00
19843;BME280;10082;51.038;6.992;2023-04-02T07:17:22;40854.25;;;-144.33;100.00
19843;BME280;10082;51.038;6.992;2023-04-02T07:19:53;39835.97;;;-144.33;100.00
19843;BME280;10082;51.038;6.992;2023-04-02T07:22:22;38539.31;;;-144.33;100.00
19843;BME280;10082;51.038;6.992;2023-04-02T07:24:54;38068.97;;;-144.33;100.00
19843;BME280;10082;51.038;6.992;2023-04-02T07:27:21;38679.63;;;-144.33;100.00
19843;BME280;10082;51.038;6.992;2023-04-02T07:29:48;37693.53;;;-144.33;100.00
19843;BME280;10082;51.038;6.992;2023-04-02T07:32:17;37379.41;;;-144.33;100.00
19843;BME280;10082;51.038;6.992;2023-04-02T07:34:46;35820.88;;;-144.33;100.00
19843;BME280;10082;51.038;6.992;2023-04-02T07:37:14;36103.28;;;-144.33;100.00
19843;BME280;10082;51.038;6.992;2023-04-02T07:39:42;35581.91;;;-144.33;100.00
19843;BME280;10082;51.038;6.992;2023-04-02T07:42:09;34908.56;;;-144.33;100.00
19843;BME280;10082;51.038;6.992;2023-04-02T07:44:37;35441.69;;;-144.33;100.00
19843;BME280;10082;51.038;6.992;2023-04-02T07:47:04;35283.72;;;-144.33;100.00
19843;BME280;10082;51.038;6.992;2023-04-02T07:49:34;35048.75;;;-144.33;100.00
19843;BME280;10082;51.038;6.992;2023-04-02T07:52:04;33191.13;;;-144.33;100.00
19843;BME280;10082;51.038;6.992;2023-04-02T07:54:31;33161.53;;;-144.33;100.00
19843;BME280;10082;51.038;6.992;2023-04-02T07:57:00;32784.59;;;-144.33;100.00
19843;BME280;10082;51.038;6.992;2023-04-02T07:59:28;32093.97;;;-144.33;100.00
19843;BME280;10082;51.038;6.992;2023-04-02T08:01:56;31352.16;;;-144.33;100.00
19843;BME280;10082;51.038;6.992;2023-04-02T08:04:24;31932.19;;;-144.33;100.00
19843;BME280;10082;51.038;6.992;2023-04-02T08:06:53;29870.97;;;-144.33;100.00
19843;BME280;10082;51.038;6.992;2023-04-02T08:09:21;29184.78;;;-144.33;100.00
19843;BME280;10082;51.038;6.992;2023-04-02T08:11:49;28299.63;;;-144.33;100.00
19843;BME280;10082;51.038;6.992;2023-04-02T08:14:16;28266.13;;;-144.33;100.00
19843;BME280;10082;51.038;6.992;2023-04-02T08:16:49;27239.31;;;-144.33;100.00
19843;BME280;10082;51.038;6.992;2023-04-02T08:19:23;27426.53;;;-144.33;100.00
19843;BME280;10082;51.038;6.992;2023-04-02T08:21:55;28274.00;;;-144.33;100.00
19843;BME280;10082;51.038;6.992;2023-04-02T08:24:23;27692.56;;;-144.33;100.00
19843;BME280;10082;51.038;6.992;2023-04-02T08:26:51;27217.63;;;-144.33;100.00
19843;BME280;10082;51.038;6.992;2023-04-02T08:29:25;26502.38;;;-144.33;100.00
19843;BME280;10082;51.038;6.992;2023-04-02T08:32:00;27345.72;;;-144.33;100.00
19843;BME280;10082;51.038;6.992;2023-04-02T08:34:28;26681.66;;;-144.33;100.00
19843;BME280;10082;51.038;6.992;2023-04-02T08:37:01;28161.66;;;-144.33;100.00
19843;BME280;10082;51.038;6.992;2023-04-02T08:39:29;29628.41;;;-144.33;100.00
19843;BME280;10082;51.038;6.992;2023-04-02T08:42:03;29206.47;;;-144.33;100.00
19843;BME280;10082;51.038;6.992;2023-04-02T08:44:42;28918.63;;;-144.33;100.00
19843;BME280;10082;51.038;6.992;2023-04-02T08:47:12;29224.22;;;-144.33;100.00
19843;BME280;10082;51.038;6.992;2023-04-02T08:49:45;28873.28;;;-144.33;100.00
19843;BME280;10082;51.038;6.992;2023-04-02T08:52:21;29054.66;;;-144.33;100.00
19843;BME280;10082;51.038;6.992;2023-04-02T08:54:50;30292.97;;;-144.33;100.00
19843;BME280;10082;51.038;6.992;2023-04-02T08:57:29;30904.38;;;-144.33;100.00
19843;BME280;10082;51.038;6.992;2023-04-02T09:00:05;33072.72;;;-144.33;100.00
19843;BME280;10082;51.038;6.992;2023-04-02T09:02:39;35876.16;;;-144.33;100.00
19843;BME280;10082;51.038;6.992;2023-04-02T09:05:17;33966.84;;;-144.33;100.00
19843;BME280;10082;51.038;6.992;2023-04-02T09:07:49;37636.25;;;-144.33;100.00
19843;BME280;10082;51.038;6.992;2023-04-02T09:10:20;39031.44;;;-144.33;100.00
19843;BME280;10082;51.038;6.992;2023-04-02T09:12:52;42118.03;;;-144.33;100.00
19843;BME280;10082;51.038;6.992;2023-04-02T09:15:29;42454.34;;;-144.33;100.00
19843;BME280;10082;51.038;6.992;2023-04-02T09:17:59;44595.41;;;-144.33;100.00
19843;BME280;10082;51.038;6.992;2023-04-02T09:20:30;46688.13;;;-144.33;100.00
19843;BME280;10082;51.038;6.992;2023-04-02T09:23:00;48231.16;;;-144.33;100.00
19843;BME280;10082;51.038;6.992;2023-04-02T09:25:30;52915.41;;;-144.33;100.00
19843;BME280;10082;51.038;6.992;2023-04-02T09:28:02;52695.25;;;-144.33;100.00
19843;BME280;10082;51.038;6.992;2023-04-02T09:30:40;52851.94;;;-144.33;100.00
19843;BME280;10082;51.038;6.992;2023-04-02T09:33:14;56656.13;;;-144.33;100.00
19843;BME280;10082;51.038;6.992;2023-04-02T09:35:54;59166.44;;;-144.33;100.00
19843;BME280;10082;51.038;6.992;2023-04-02T09:38:26;57494.03;;;-144.33;100.00
19843;BME280;10082;51.038;6.992;2023-04-02T09:40:59;57799.88;;;-144.33;100.00
19843;BME280;10082;51.038;6.992;2023-04-02T09:43:28;59041.28;;;-144.33;100.00
19843;BME280;10082;51.038;6.992;2023-04-02T09:45:59;60491.75;;;-144.33;100.00
19843;BME280;10082;51.038;6.992;2023-04-02T09:48:30;59740.63;;;-144.33;100.00
19843;BME280;10082;51.038;6.992;2023-04-02T09:51:11;59480.34;;;-144.33;100.00
19843;BME280;10082;51.038;6.992;2023-04-02T09:53:43;60271.16;;;-144.33;100.00
19843;BME280;10082;51.038;6.992;2023-04-02T09:56:16;60096.31;;;-144.33;100.00
19843;BME280;10082;51.038;6.992;2023-04-02T09:58:45;62145.53;;;-144.33;100.00
19843;BME280;10082;51.038;6.992;2023-04-02T10:01:29;62950.81;;;-144.33;100.00
19843;BME280;10082;51.038;6.992;2023-04-02T10:03:58;61555.09;;;-144.33;100.00
19843;BME280;10082;51.038;6.992;2023-04-02T10:06:30;60958.81;;;-144.33;100.00
19843;BME280;10082;51.038;6.992;2023-04-02T10:09:18;64492.22;;;-144.33;100.00
19843;BME280;10082;51.038;6.992;2023-04-02T10:11:50;67726.16;;;-144.33;100.00
19843;BME280;10082;51.038;6.992;2023-04-02T10:14:25;70026.34;;;-144.33;100.00
19843;BME280;10082;51.038;6.992;2023-04-02T10:16:57;73510.00;;;-144.33;100.00
19843;BME280;10082;51.038;6.992;2023-04-02T10:19:29;77781.03;;;-144.33;100.00
19843;BME280;10082;51.038;6.992;2023-04-02T10:22:02;83035.75;;;-144.33;100.00
19843;BME280;10082;51.038;6.992;2023-04-02T10:24:34;85066.81;;;-144.33;100.00
19843;BME280;10082;51.038;6.992;2023-04-02T10:27:08;90933.78;;;-144.33;100.00
19843;BME280;10082;51.038;6.992;2023-04-02T10:29:55;93329.44;;;-144.33;100.00
19843;BME280;10082;51.038;6.992;2023-04-02T10:32:31;93688.13;;;-144.33;100.00
19843;BME280;10082;51.038;6.992;2023-04-02T10:35:03;95923.03;;;-144.33;100.00
19843;BME280;10082;51.038;6.992;2023-04-02T10:38:00;99122.19;;;-144.33;100.00
19843;BME280;10082;51.038;6.992;2023-04-02T10:40:34;100173.75;;;-144.33;100.00
19843;BME280;10082;51.038;6.992;2023-04-02T10:43:29;101368.13;;;-144.33;100.00
19843;BME280;10082;51.038;6.992;2023-04-02T10:46:03;102956.47;;;-144.33;100.00
19843;BME280;10082;51.038;6.992;2023-04-02T10:48:39;103623.31;;;-144.33;100.00
19843;BME280;10082;51.038;6.992;2023-04-02T10:51:18;102711.44;;;-144.33;100.00
19843;BME280;10082;51.038;6.992;2023-04-02T10:53:56;103577.13;;;-144.33;100.00
19843;BME280;10082;51.038;6.992;2023-04-02T10:56:30;106002.38;;;-144.33;100.00
19843;BME280;10082;51.038;6.992;2023-04-02T10:59:01;107980.66;;;-144.33;100.00
19843;BME280;10082;51.038;6.992;2023-04-02T11:01:31;109599.75;;;-144.33;100.00
19843;BME280;10082;51.038;6.992;2023-04-02T11:04:05;111058.50;;;-144.33;100.00
19843;BME280;10082;51.038;6.992;2023-04-02T11:06:38;112135.31;;;-144.33;100.00
19843;BME280;10082;51.038;6.992;2023-04-02T11:09:14;112171.53;;;-144.33;100.00
19843;BME280;10082;51.038;6.992;2023-04-02T11:11:47;112171.53;;;-144.33;100.00
19843;BME280;10082;51.038;6.992;2023-04-02T11:14:20;112171.53;;;-144.33;100.00
19843;BME280;10082;51.038;6.992;2023-04-02T11:16:49;112171.53;;;-144.33;100.00
19843;BME280;10082;51.038;6.992;2023-04-02T11:19:24;112171.53;;;-144.33;100.00
19843;BME280;10082;51.038;6.992;2023-04-02T11:21:54;112171.53;;;-144.33;100.00
19843;BME280;10082;51.038;6.992;2023-04-02T11:24:41;112171.53;;;-144.33;100.00
19843;BME280;10082;51.038;6.992;2023-04-02T11:27:19;112171.53;;;-144.33;100.00
19843;BME280;10082;51.038;6.992;2023-04-02T11:29:49;112171.53;;;-144.33;100.00
19843;BME280;10082;51.038;6.992;2023-04-02T11:32:31;112171.53;;;-144.33;100.00
19843;BME280;10082;51.038;6.992;2023-04-02T11:38:47;112171.53;;;-144.33;100.00
19843;BME280;10082;51.038;6.992;2023-04-02T11:44:23;112171.53;;;-144.33;100.00
19843;BME280;10082;51.038;6.992;2023-04-02T11:46:51;112171.53;;;-144.33;100.00
19843;BME280;10082;51.038;6.992;2023-04-02T11:52:31;112171.53;;;-144.33;100.00
19843;BME280;10082;51.038;6.992;2023-04-02T11:55:03;112171.53;;;-144.33;100.00
19843;BME280;10082;51.038;6.992;2023-04-02T12:04:00;112171.53;;;-144.33;100.00
19843;BME280;10082;51.038;6.992;2023-04-02T12:06:44;112171.53;;;-144.33;100.00
19843;BME280;10082;51.038;6.992;2023-04-02T12:09:18;112171.53;;;-144.33;100.00
19843;BME280;10082;51.038;6.992;2023-04-02T12:11:49;112171.53;;;-144.33;100.00
19843;BME280;10082;51.038;6.992;2023-04-02T12:14:40;112171.53;;;-144.33;100.00
19843;BME280;10082;51.038;6.992;2023-04-02T12:17:17;112171.53;;;-144.33;100.00
19843;BME280;10082;51.038;6.992;2023-04-02T12:19:51;112171.53;;;-144.33;100.00
19843;BME280;10082;51.038;6.992;2023-04-02T12:22:30;112171.53;;;-144.33;100.00
19843;BME280;10082;51.038;6.992;2023-04-02T12:25:03;112171.53;;;-144.33;100.00
19843;BME280;10082;51.038;6.992;2023-04-02T12:27:31;112171.53;;;-144.33;100.00
19843;BME280;10082;51.038;6.992;2023-04-02T12:30:16;112171.53;;;-144.33;100.00
19843;BME280;10082;51.038;6.992;2023-04-02T12:32:44;112171.53;;;-144.33;100.00
19843;BME280;10082;51.038;6.992;2023-04-02T12:35:27;112171.53;;;-144.33;100.00
19843;BME280;10082;51.038;6.992;2023-04-02T12:37:55;112171.53;;;-144.33;100.00
19843;BME280;10082;51.038;6.992;2023-04-02T12:40:24;112171.53;;;-144.33;100.00
19843;BME280;10082;51.038;6.992;2023-04-02T12:42:52;112171.53;;;-144.33;100.00
19843;BME280;10082;51.038;6.992;2023-04-02T12:45:27;112171.53;;;-144.33;100.00
19843;BME280;10082;51.038;6.992;2023-04-02T12:47:59;112171.53;;;-144.33;100.00
19843;BME280;10082;51.038;6.992;2023-04-02T12:50:31;112171.53;;;-144.33;100.00
19843;BME280;10082;51.038;6.992;2023-04-02T12:52:59;112171.53;;;-144.33;100.00
19843;BME280;10082;51.038;6.992;2023-04-02T12:55:28;112171.53;;;-144.33;100.00
19843;BME280;10082;51.038;6.992;2023-04-02T12:57:57;112171.53;;;-144.33;100.00
19843;BME280;10082;51.038;6.992;2023-04-02T13:00:32;112171.53;;;-144.33;100.00
19843;BME280;10082;51.038;6.992;2023-04-02T13:03:16;112171.53;;;-144.33;100.00
19843;BME280;10082;51.038;6.992;2023-04-02T13:05:48;112171.53;;;-144.33;100.00
19843;BME280;10082;51.038;6.992;2023-04-02T13:08:19;112171.53;;;-144.33;100.00
19843;BME280;10082;51.038;6.992;2023-04-02T13:10:57;112171.53;;;-144.33;100.00
19843;BME280;10082;51.038;6.992;2023-04-02T13:13:28;112171.53;;;-144.33;100.00
19843;BME280;10082;51.038;6.992;2023-04-02T13:16:01;112171.53;;;-144.33;100.00
19843;BME280;10082;51.038;6.992;2023-04-02T13:18:29;112171.53;;;-144.33;100.00
19843;BME280;10082;51.038;6.992;2023-04-02T13:21:25;112171.53;;;-144.33;100.00
19843;BME280;10082;51.038;6.992;2023-04-02T13:23:53;112171.53;;;-144.33;100.00
19843;BME280;10082;51.038;6.992;2023-04-02T13:26:24;112171.53;;;-144.33;100.00